Time;durP1;ratioP1;P1;durP2;ratioP2;P2;SDS_P1;SDS_P2;PMS_P1;PMS_P2;Temp;Humidity;BMP_temperature;BMP_pressure;BME280_temperature;BME280_humidity;BME280_pressure;Samples;Min_cycle;Max_cycle;Signal;HPM_P1;HPM_P2
2023/08/06 00:00:29;;;;;;;6.30;5.90;;;;;;;14.20;100.00;99939.97;6199347;23;20030;-71
2023/08/06 00:02:55;;;;;;;6.28;5.78;;;;;;;14.50;100.00;99992.13;6201724;23;20020;-71
2023/08/06 00:05:22;;;;;;;6.82;6.32;;;;;;;14.49;100.00;99992.22;6199471;23;20079;-71
2023/08/06 00:07:49;;;;;;;6.40;6.00;;;;;;;14.55;100.00;100003.16;6203957;23;20028;-72
2023/08/06 00:10:16;;;;;;;6.20;5.80;;;;;;;14.52;100.00;100010.47;6179137;23;20020;-71
2023/08/06 00:12:43;;;;;;;9.52;6.00;;;;;;;14.61;100.00;99991.28;6197687;23;20091;-71
2023/08/06 00:15:11;;;;;;;6.38;5.82;;;;;;;14.43;100.00;99975.06;6208365;23;20036;-70
2023/08/06 00:17:37;;;;;;;6.18;5.78;;;;;;;14.18;100.00;99943.69;6203819;22;20032;-70
2023/08/06 00:20:05;;;;;;;5.93;5.63;;;;;;;14.63;100.00;99988.50;6203597;23;20032;-70
2023/08/06 00:22:36;;;;;;;6.50;6.03;;;;;;;14.56;100.00;99959.13;6174642;23;20027;-70
2023/08/06 00:25:04;;;;;;;6.40;6.00;;;;;;;14.33;100.00;99951.25;6205479;23;20118;-71
2023/08/06 00:27:32;;;;;;;6.40;6.00;;;;;;;14.09;100.00;99916.22;6198960;23;20056;-71
2023/08/06 00:29:59;;;;;;;8.80;6.07;;;;;;;14.30;100.00;99983.13;6203182;23;20537;-71
2023/08/06 00:32:25;;;;;;;6.38;5.82;;;;;;;14.36;100.00;99995.84;6200475;23;20077;-71
2023/08/06 00:34:52;;;;;;;6.53;6.03;;;;;;;14.34;100.00;100007.50;6201162;23;20032;-71
2023/08/06 00:37:18;;;;;;;6.00;5.60;;;;;;;14.14;100.00;99951.00;6172360;23;20009;-70
2023/08/06 00:39:44;;;;;;;6.13;5.70;;;;;;;14.11;100.00;99949.47;6203362;23;20032;-71
2023/08/06 00:42:12;;;;;;;7.13;6.57;;;;;;;14.53;100.00;100002.44;6201310;23;20031;-70
2023/08/06 00:44:39;;;;;;;5.82;5.43;;;;;;;14.61;100.00;100022.13;6201977;23;20049;-71
2023/08/06 00:47:08;;;;;;;6.28;5.88;;;;;;;14.54;100.00;99984.78;6205348;23;20028;-70
2023/08/06 00:49:36;;;;;;;6.78;5.97;;;;;;;14.41;100.00;99958.50;6174971;23;20024;-72
2023/08/06 00:52:05;;;;;;;7.25;5.97;;;;;;;14.35;100.00;99944.03;6199448;23;20072;-71
2023/08/06 00:54:32;;;;;;;5.93;5.53;;;;;;;14.57;100.00;99974.00;6155250;23;20042;-71
2023/08/06 00:57:00;;;;;;;9.32;5.95;;;;;;;13.39;100.00;99769.69;6175305;22;20556;-71
2023/08/06 00:59:28;;;;;;;6.47;5.97;;;;;;;14.50;100.00;99954.31;6170460;23;20225;-71
2023/08/06 01:01:55;;;;;;;6.78;6.13;;;;;;;14.72;100.00;99954.28;6205580;23;20406;-71
2023/08/06 01:04:23;;;;;;;6.53;6.13;;;;;;;14.80;100.00;99971.31;6202632;23;20168;-70
2023/08/06 01:07:01;;;;;;;6.18;5.75;;;;;;;14.48;100.00;99908.72;6201080;23;20083;-71
2023/08/06 01:09:49;;;;;;;5.95;5.60;;;;;;;14.53;100.00;99890.69;6175683;23;20033;-71
2023/08/06 01:12:34;;;;;;;5.80;5.40;;;;;;;14.92;100.00;99957.94;6201739;23;20004;-72
2023/08/06 01:15:06;;;;;;;6.28;5.75;;;;;;;14.72;100.00;99921.75;6200637;23;20466;-71
2023/08/06 01:17:33;;;;;;;5.88;5.50;;;;;;;15.02;100.00;99950.09;6202675;23;20505;-71
2023/08/06 01:20:00;;;;;;;7.50;6.22;;;;;;;13.89;100.00;99776.22;6202624;23;20659;-71
2023/08/06 01:22:26;;;;;;;6.00;5.60;;;;;;;15.08;100.00;99944.28;6201820;23;20391;-71
2023/08/06 01:24:53;;;;;;;6.28;5.82;;;;;;;14.70;100.00;99898.09;6201878;23;20028;-71
2023/08/06 01:27:28;;;;;;;6.43;5.97;;;;;;;14.85;100.00;99874.84;6201594;23;20016;-70
2023/08/06 01:30:11;;;;;;;6.47;6.07;;;;;;;14.82;100.00;99869.00;6194929;23;20090;-71
2023/08/06 01:32:43;;;;;;;5.95;5.55;;;;;;;14.68;100.00;99884.19;6201865;23;20016;-72
2023/08/06 01:35:12;;;;;;;5.85;5.55;;;;;;;13.90;100.00;99761.22;6198724;23;20075;-72
2023/08/06 01:37:38;;;;;;;7.07;5.63;;;;;;;14.74;100.00;99904.81;6203193;23;20022;-71
2023/08/06 01:40:14;;;;;;;6.50;6.00;;;;;;;14.66;100.00;99878.19;6199923;23;20036;-72
2023/08/06 01:42:40;;;;;;;6.25;5.20;;;;;;;14.83;100.00;99897.91;6170138;23;20486;-71
2023/08/06 01:45:08;;;;;;;6.10;5.68;;;;;;;14.73;100.00;99886.44;6203232;23;20469;-72
2023/08/06 01:47:35;;;;;;;6.10;5.70;;;;;;;15.08;100.00;99928.44;6196351;23;20079;-71
2023/08/06 01:50:02;;;;;;;5.90;5.40;;;;;;;14.85;100.00;99882.78;6202201;23;20032;-71
2023/08/06 01:52:28;;;;;;;6.25;5.68;;;;;;;14.48;100.00;99826.88;6159185;23;20075;-71
2023/08/06 01:54:55;;;;;;;6.60;6.03;;;;;;;14.49;100.00;99829.41;6201010;22;20037;-71
2023/08/06 01:57:22;;;;;;;5.88;5.47;;;;;;;14.58;100.00;99829.63;6201035;23;20092;-71
2023/08/06 01:59:48;;;;;;;6.07;5.45;;;;;;;14.74;100.00;99849.34;6205789;23;20032;-71
2023/08/06 02:02:14;;;;;;;5.60;5.28;;;;;;;15.03;100.00;99879.56;6199052;23;20054;-72
2023/08/06 02:04:41;;;;;;;6.18;5.68;;;;;;;14.70;100.00;99850.56;6200247;23;20835;-72
2023/08/06 02:07:07;;;;;;;5.75;5.45;;;;;;;14.69;100.00;99848.91;6198966;23;20494;-73
2023/08/06 02:09:35;;;;;;;5.35;5.05;;;;;;;15.03;100.00;99911.28;6199067;23;20030;-72
2023/08/06 02:12:02;;;;;;;5.55;5.25;;;;;;;14.95;100.00;99904.00;6198542;23;20096;-72
2023/08/06 02:14:29;;;;;;;5.50;5.20;;;;;;;14.58;100.00;99872.72;6199103;23;20088;-72
2023/08/06 02:16:55;;;;;;;5.43;5.13;;;;;;;14.52;100.00;99863.44;6175077;23;20122;-72
2023/08/06 02:19:22;;;;;;;5.82;5.43;;;;;;;13.99;100.00;99796.56;6149824;23;20024;-73
2023/08/06 02:21:48;;;;;;;5.95;5.55;;;;;;;14.33;100.00;99850.94;6204043;23;20036;-74
2023/08/06 02:24:14;;;;;;;6.03;5.63;;;;;;;14.40;100.00;99871.56;6202593;23;20553;-72
2023/08/06 02:26:41;;;;;;;5.38;5.07;;;;;;;14.28;100.00;99837.25;6199698;23;20043;-72
2023/08/06 02:29:07;;;;;;;5.78;5.38;;;;;;;13.57;100.00;99749.81;6201087;23;20538;-71
2023/08/06 02:31:34;;;;;;;5.63;5.22;;;;;;;14.39;100.00;99897.09;6203684;23;20524;-71
2023/08/06 02:34:00;;;;;;;5.78;5.35;;;;;;;14.12;100.00;99889.59;6168905;23;20998;-72
2023/08/06 02:36:29;;;;;;;7.15;5.97;;;;;;;13.64;100.00;99816.91;6197784;23;20016;-72
2023/08/06 02:38:55;;;;;;;5.85;5.47;;;;;;;13.84;100.00;99846.97;6172655;23;20016;-71
2023/08/06 02:41:22;;;;;;;5.80;5.40;;;;;;;14.06;100.00;99876.91;6196967;23;20024;-72
2023/08/06 02:43:48;;;;;;;5.43;5.13;;;;;;;13.94;100.00;99878.72;6173718;23;20028;-72
2023/08/06 02:46:14;;;;;;;6.07;5.68;;;;;;;13.56;100.00;99848.28;6198051;23;20031;-71
2023/08/06 02:48:41;;;;;;;5.97;5.57;;;;;;;14.00;100.00;99915.16;6197186;23;20024;-72
2023/08/06 02:51:07;;;;;;;5.63;5.32;;;;;;;13.77;100.00;99880.91;6201821;23;20104;-72
2023/08/06 02:53:34;;;;;;;5.90;5.50;;;;;;;14.05;100.00;99931.47;6200730;23;20501;-72
2023/08/06 02:56:00;;;;;;;5.82;5.35;;;;;;;13.79;100.00;99862.31;6175142;23;20047;-71
2023/08/06 02:58:27;;;;;;;5.88;5.53;;;;;;;14.15;100.00;99905.19;6197133;23;20043;-73
2023/08/06 03:01:05;;;;;;;5.70;5.30;;;;;;;14.12;100.00;99901.00;6156107;23;20047;-72
2023/08/06 03:03:33;;;;;;;5.65;5.25;;;;;;;14.24;100.00;99912.38;6199101;23;20035;-71
2023/08/06 03:06:00;;;;;;;6.05;5.60;;;;;;;14.35;100.00;99924.69;6164145;23;20064;-71
2023/08/06 03:08:26;;;;;;;6.05;5.65;;;;;;;14.04;100.00;99858.56;6164828;23;20031;-71
2023/08/06 03:10:53;;;;;;;5.93;5.53;;;;;;;14.04;100.00;99848.00;6182677;23;20043;-72
2023/08/06 03:13:19;;;;;;;6.30;5.90;;;;;;;14.50;100.00;99898.88;6196929;23;20030;-73
2023/08/06 03:15:54;;;;;;;5.63;5.22;;;;;;;14.69;100.00;99903.50;6204911;23;20890;-71
2023/08/06 03:18:21;;;;;;;6.50;6.00;;;;;;;14.24;100.00;99819.16;6195785;23;20075;-71
2023/08/06 03:20:48;;;;;;;5.90;5.57;;;;;;;14.68;100.00;99892.09;6201902;23;20090;-71
2023/08/06 03:23:14;;;;;;;6.13;5.63;;;;;;;14.82;100.00;99924.47;6180368;23;20027;-71
2023/08/06 03:25:41;;;;;;;6.97;6.05;;;;;;;14.71;100.00;99883.94;6202912;23;20059;-72
2023/08/06 03:28:07;;;;;;;6.13;5.65;;;;;;;14.85;100.00;99895.97;6187890;23;20032;-71
2023/08/06 03:30:33;;;;;;;6.47;5.97;;;;;;;14.84;100.00;99883.75;6202219;23;20024;-71
2023/08/06 03:33:00;;;;;;;6.15;5.65;;;;;;;14.05;100.00;99722.19;6188404;23;20024;-71
2023/08/06 03:35:26;;;;;;;6.07;5.50;;;;;;;13.66;100.00;99742.97;6196360;22;20544;-71
2023/08/06 03:37:53;;;;;;;5.85;5.47;;;;;;;14.52;100.00;99881.09;6205209;23;20027;-71
2023/08/06 03:40:19;;;;;;;6.75;6.10;;;;;;;14.51;100.00;99882.91;6201184;23;20088;-71
2023/08/06 03:42:46;;;;;;;6.47;5.97;;;;;;;14.73;100.00;99870.59;6204085;23;20092;-71
2023/08/06 03:45:12;;;;;;;7.15;6.50;;;;;;;15.03;100.00;99883.03;6203667;23;20101;-71
2023/08/06 03:47:38;;;;;;;5.90;5.53;;;;;;;14.28;100.00;99812.69;6201944;23;20382;-71
2023/08/06 03:50:05;;;;;;;5.85;5.47;;;;;;;14.17;100.00;99829.38;6206424;23;20121;-71
2023/08/06 03:52:32;;;;;;;10.50;6.20;;;;;;;13.73;100.00;99749.38;6199251;23;20025;-71
2023/08/06 03:54:58;;;;;;;6.30;5.80;;;;;;;14.51;100.00;99872.34;6209826;23;20012;-72
2023/08/06 03:57:24;;;;;;;6.88;6.38;;;;;;;14.80;100.00;99907.94;6200181;23;20024;-71
2023/08/06 03:59:53;;;;;;;6.45;5.95;;;;;;;14.19;100.00;99816.88;6178514;23;20031;-71
2023/08/06 04:02:21;;;;;;;5.93;5.63;;;;;;;14.60;100.00;99899.81;6201325;23;20177;-71
2023/08/06 04:04:48;;;;;;;6.10;5.60;;;;;;;14.53;100.00;99885.41;6180654;23;20530;-71
2023/08/06 04:07:15;;;;;;;8.45;5.90;;;;;;;14.46;100.00;99889.53;6202330;23;20083;-71
2023/08/06 04:09:56;;;;;;;5.72;5.22;;;;;;;14.73;100.00;99912.84;6205752;23;20017;-72
2023/08/06 04:12:22;;;;;;;6.28;5.85;;;;;;;14.80;100.00;99921.13;6200224;23;20024;-71
2023/08/06 04:14:51;;;;;;;5.93;5.43;;;;;;;14.80;100.00;99924.59;6182121;23;20013;-73
2023/08/06 04:17:20;;;;;;;5.93;5.60;;;;;;;14.63;100.00;99880.25;6150515;23;20004;-73
2023/08/06 04:19:54;;;;;;;8.48;6.10;;;;;;;14.80;100.00;99913.22;6175599;23;20182;-73
2023/08/06 04:22:21;;;;;;;6.30;5.90;;;;;;;14.83;100.00;99918.22;6197331;22;20668;-74
2023/08/06 04:24:47;;;;;;;5.65;5.35;;;;;;;14.60;100.00;99883.97;6202538;23;20469;-72
2023/08/06 04:27:15;;;;;;;6.13;5.72;;;;;;;14.82;100.00;99930.59;6206132;23;20028;-71
2023/08/06 04:29:42;;;;;;;5.97;5.57;;;;;;;14.58;100.00;99874.53;6196104;23;20040;-72
2023/08/06 04:32:10;;;;;;;6.05;5.65;;;;;;;14.86;100.00;99904.78;6200026;23;20533;-72
2023/08/06 04:34:37;;;;;;;5.72;5.32;;;;;;;13.84;100.00;99748.53;6177167;23;20017;-72
2023/08/06 04:37:06;;;;;;;5.40;5.10;;;;;;;14.76;100.00;99920.53;6203203;23;20052;-72
2023/08/06 04:39:32;;;;;;;5.72;5.43;;;;;;;14.73;100.00;99924.28;6205459;23;20028;-72
2023/08/06 04:41:59;;;;;;;6.13;5.50;;;;;;;13.58;100.00;99762.00;6205717;23;20034;-72
2023/08/06 04:44:25;;;;;;;7.10;5.90;;;;;;;14.73;100.00;99926.91;6201196;23;20715;-72
2023/08/06 04:46:52;;;;;;;5.63;5.30;;;;;;;14.43;100.00;99868.66;6204112;23;20021;-72
2023/08/06 04:49:20;;;;;;;6.00;5.57;;;;;;;14.68;100.00;99920.34;6143552;23;20032;-73
2023/08/06 04:51:47;;;;;;;5.60;5.30;;;;;;;14.42;100.00;99898.66;6203139;23;20072;-72
2023/08/06 04:54:13;;;;;;;6.05;5.32;;;;;;;14.62;100.00;99937.50;6206265;23;20020;-72
2023/08/06 04:56:40;;;;;;;5.72;5.32;;;;;;;14.15;100.00;99834.78;6178205;23;20016;-72
2023/08/06 04:59:06;;;;;;;6.05;5.65;;;;;;;14.49;100.00;99898.03;6194974;23;20008;-71
2023/08/06 05:01:33;;;;;;;5.45;5.15;;;;;;;14.51;100.00;99914.59;6196897;23;20036;-71
2023/08/06 05:03:59;;;;;;;5.70;5.30;;;;;;;14.32;100.00;99888.00;6201475;23;20030;-72
2023/08/06 05:06:26;;;;;;;5.65;5.35;;;;;;;14.21;100.00;99870.38;6147294;23;20056;-72
2023/08/06 05:08:52;;;;;;;6.15;5.55;;;;;;;14.69;100.00;99933.41;6203254;23;20055;-72
2023/08/06 05:11:19;;;;;;;5.65;5.35;;;;;;;14.94;100.00;99976.31;6203029;23;20839;-72
2023/08/06 05:13:45;;;;;;;5.70;5.32;;;;;;;15.25;100.00;99949.97;6202287;23;20628;-73
2023/08/06 05:16:12;;;;;;;5.85;5.45;;;;;;;15.07;100.00;99913.53;6204281;23;20027;-72
2023/08/06 05:18:39;;;;;;;5.28;4.97;;;;;;;14.74;100.00;99893.41;6171771;23;20017;-72
2023/08/06 05:21:05;;;;;;;5.50;5.20;;;;;;;14.43;100.00;99858.09;6206091;23;20034;-72
2023/08/06 05:23:31;;;;;;;6.88;5.60;;;;;;;14.99;100.00;99945.03;6202217;23;20560;-72
2023/08/06 05:25:58;;;;;;;6.10;5.65;;;;;;;15.02;100.00;99954.53;6204934;23;20796;-72
2023/08/06 05:28:24;;;;;;;5.70;5.30;;;;;;;14.65;100.00;99894.16;6193637;22;20083;-72
2023/08/06 05:30:51;;;;;;;5.90;5.50;;;;;;;14.95;100.00;99918.06;6203853;23;20020;-72
2023/08/06 05:33:17;;;;;;;5.60;5.20;;;;;;;14.98;100.00;99901.09;6170391;23;20019;-73
2023/08/06 05:35:43;;;;;;;5.80;5.30;;;;;;;15.16;100.00;99910.13;6153817;23;20024;-72
2023/08/06 05:38:10;;;;;;;5.50;5.20;;;;;;;15.30;100.00;99932.75;6199603;23;20020;-72
2023/08/06 05:40:36;;;;;;;5.97;5.57;;;;;;;15.28;100.00;99910.06;6170970;23;20080;-71
2023/08/06 05:43:03;;;;;;;6.25;5.38;;;;;;;15.52;100.00;99937.06;6149320;23;20084;-72
2023/08/06 05:45:29;;;;;;;6.03;5.63;;;;;;;15.17;100.00;99868.66;6201561;23;20068;-72
2023/08/06 05:47:58;;;;;;;5.50;5.10;;;;;;;15.61;100.00;99905.50;6177697;23;20107;-72
2023/08/06 05:50:25;;;;;;;5.68;5.38;;;;;;;15.84;100.00;99924.75;6197644;23;20055;-72
2023/08/06 05:52:51;;;;;;;5.43;5.13;;;;;;;15.84;100.00;99900.94;6175993;23;20024;-73
2023/08/06 05:55:20;;;;;;;5.78;5.45;;;;;;;16.09;100.00;99916.31;6149258;23;20106;-72
2023/08/06 05:57:46;;;;;;;5.30;5.00;;;;;;;16.39;100.00;99903.97;6197534;23;20056;-72
2023/08/06 06:00:13;;;;;;;5.75;5.40;;;;;;;15.23;100.00;99706.09;6169406;23;20043;-72
2023/08/06 06:02:39;;;;;;;6.20;5.70;;;;;;;16.40;100.00;99881.84;6203352;23;20012;-72
2023/08/06 06:05:06;;;;;;;5.68;5.28;;;;;;;15.84;100.00;99779.22;6202082;23;20012;-72
2023/08/06 06:07:32;;;;;;;5.70;5.40;;;;;;;16.22;100.00;99822.59;6175312;23;20770;-72
2023/08/06 06:09:59;;;;;;;6.03;5.53;;;;;;;15.85;100.00;99773.75;6175310;23;20020;-72
2023/08/06 06:12:26;;;;;;;5.45;5.15;;;;;;;16.36;100.00;99872.50;6179349;23;20024;-72
2023/08/06 06:14:52;;;;;;;5.82;5.32;;;;;;;16.41;100.00;99874.72;6198325;23;20026;-72
2023/08/06 06:17:19;;;;;;;5.63;5.32;;;;;;;16.19;100.00;99851.97;6178896;23;20400;-72
2023/08/06 06:19:46;;;;;;;5.75;5.45;;;;;;;16.18;100.00;99835.25;6171364;23;20050;-72
2023/08/06 06:22:15;;;;;;;6.47;6.07;;;;;;;16.08;100.00;99821.19;6160826;23;20047;-72
2023/08/06 06:24:41;;;;;;;6.25;5.82;;;;;;;16.52;100.00;99867.47;6202964;23;20031;-71
2023/08/06 06:27:07;;;;;;;7.75;5.85;;;;;;;16.50;100.00;99873.91;6171154;23;20030;-72
2023/08/06 06:29:34;;;;;;;6.45;5.95;;;;;;;16.10;100.00;99809.47;6194975;23;20616;-72
2023/08/06 06:32:00;;;;;;;6.28;5.88;;;;;;;16.47;100.00;99871.50;6172080;23;20119;-71
2023/08/06 06:34:27;;;;;;;5.88;5.57;;;;;;;16.49;100.00;99872.22;6167811;23;20030;-72
2023/08/06 06:36:53;;;;;;;5.80;5.32;;;;;;;16.53;100.00;99853.25;6200012;23;20093;-72
2023/08/06 06:39:21;;;;;;;5.82;5.43;;;;;;;16.60;100.00;99872.09;6156380;23;20487;-73
2023/08/06 06:41:47;;;;;;;5.90;5.60;;;;;;;16.65;100.00;99846.00;6194111;23;20489;-71
2023/08/06 06:44:14;;;;;;;5.95;5.43;;;;;;;16.64;100.00;99851.47;6169791;23;20050;-72
2023/08/06 06:46:41;;;;;;;6.15;5.63;;;;;;;16.64;100.00;99809.06;6197749;23;20028;-72
2023/08/06 06:49:07;;;;;;;6.00;5.60;;;;;;;17.15;100.00;99867.03;6184043;23;20048;-72
2023/08/06 06:51:34;;;;;;;6.50;6.05;;;;;;;16.96;100.00;99811.41;6199379;23;20028;-73
2023/08/06 06:54:00;;;;;;;6.57;6.00;;;;;;;17.18;100.00;99831.47;6156313;23;20034;-72
2023/08/06 06:56:26;;;;;;;7.30;5.65;;;;;;;16.73;100.00;99771.94;6201919;23;20028;-71
2023/08/06 06:58:53;;;;;;;5.65;5.28;;;;;;;17.06;100.00;99821.97;6198135;23;20747;-71
2023/08/06 07:01:19;;;;;;;6.25;5.90;;;;;;;16.53;100.00;99752.59;6202441;23;20040;-71
2023/08/06 07:03:46;;;;;;;6.18;5.78;;;;;;;16.24;100.00;99686.44;6198831;22;20024;-72
2023/08/06 07:06:12;;;;;;;6.00;5.60;;;;;;;16.47;100.00;99720.56;6195214;23;20111;-72
2023/08/06 07:08:39;;;;;;;5.90;5.60;;;;;;;17.01;100.00;99795.06;6171141;23;20036;-72
2023/08/06 07:11:06;;;;;;;6.18;5.70;;;;;;;17.31;100.00;99802.78;6201456;23;20059;-71
2023/08/06 07:13:34;;;;;;;5.95;5.55;;;;;;;17.08;100.00;99749.28;6198564;23;20570;-72
2023/08/06 07:16:00;;;;;;;5.90;5.60;;;;;;;17.15;100.00;99731.81;6199018;23;20092;-72
2023/08/06 07:18:28;;;;;;;6.20;5.80;;;;;;;17.48;100.00;99752.59;6180665;23;20534;-73
2023/08/06 07:20:55;;;;;;;6.18;5.78;;;;;;;17.68;100.00;99754.16;6198113;23;20067;-72
2023/08/06 07:23:23;;;;;;;6.15;5.75;;;;;;;17.67;100.00;99715.34;6166808;23;20133;-71
2023/08/06 07:25:50;;;;;;;6.25;5.85;;;;;;;17.90;100.00;99706.97;6198616;23;20106;-72
2023/08/06 07:28:17;;;;;;;5.88;5.57;;;;;;;17.78;100.00;99650.63;6173525;23;20024;-74
2023/08/06 07:30:44;;;;;;;6.43;6.03;;;;;;;17.42;100.00;99589.59;6172061;23;20220;-71
2023/08/06 07:33:11;;;;;;;6.10;5.70;;;;;;;17.97;100.00;99689.44;6193734;23;20027;-70
2023/08/06 07:35:38;;;;;;;5.97;5.68;;;;;;;17.47;100.00;99655.44;6197471;23;20070;-71
2023/08/06 07:38:04;;;;;;;6.05;5.70;;;;;;;17.18;100.00;99645.84;6198141;23;20097;-71
2023/08/06 07:40:31;;;;;;;5.90;5.60;;;;;;;17.63;100.00;99718.44;6198371;23;20075;-71
2023/08/06 07:42:57;;;;;;;6.40;6.00;;;;;;;17.54;100.00;99654.69;6200853;23;20102;-73
2023/08/06 07:45:24;;;;;;;6.15;5.70;;;;;;;17.69;100.00;99701.94;6203563;23;20029;-71
2023/08/06 07:47:51;;;;;;;6.50;6.00;;;;;;;17.28;100.00;99715.59;6200973;23;20091;-71
2023/08/06 07:50:17;;;;;;;6.32;5.93;;;;;;;17.34;100.00;99751.28;6199675;23;20048;-70
2023/08/06 07:52:44;;;;;;;5.80;5.50;;;;;;;17.41;100.00;99736.44;6192543;23;20086;-71
2023/08/06 07:55:10;;;;;;;6.00;5.70;;;;;;;17.14;100.00;99713.41;6190908;23;20096;-71
2023/08/06 07:57:37;;;;;;;6.55;6.15;;;;;;;16.83;100.00;99663.31;6198687;23;20022;-71
2023/08/06 08:00:05;;;;;;;6.53;6.13;;;;;;;17.18;100.00;99700.69;6215418;23;20044;-71
2023/08/06 08:02:31;;;;;;;6.75;6.10;;;;;;;17.45;100.00;99751.06;6185587;23;20028;-71
2023/08/06 08:04:58;;;;;;;6.50;6.00;;;;;;;17.53;100.00;99808.69;6200935;23;20053;-71
2023/08/06 08:07:24;;;;;;;6.13;5.72;;;;;;;16.34;100.00;99659.97;6203606;23;20020;-71
2023/08/06 08:09:50;;;;;;;6.60;6.10;;;;;;;16.85;100.00;99727.59;6199928;23;20459;-73
2023/08/06 08:12:17;;;;;;;5.60;5.30;;;;;;;16.91;100.00;99765.94;6202526;23;20086;-74
2023/08/06 08:14:45;;;;;;;6.55;6.05;;;;;;;17.49;100.00;99837.34;6179048;23;20028;-74
2023/08/06 08:17:12;;;;;;;6.60;6.20;;;;;;;15.83;100.00;99600.28;6151321;23;20021;-73
2023/08/06 08:19:40;;;;;;;6.97;6.38;;;;;;;17.18;100.00;99796.13;6206037;23;20036;-71
2023/08/06 08:22:07;;;;;;;6.15;5.78;;;;;;;17.29;100.00;99859.59;6203409;23;20488;-71
2023/08/06 08:24:34;;;;;;;6.88;6.38;;;;;;;16.99;100.00;99813.78;6205900;23;20098;-73
2023/08/06 08:27:01;;;;;;;6.78;6.28;;;;;;;17.44;100.00;99873.22;6202408;23;20042;-72
2023/08/06 08:29:27;;;;;;;6.85;6.45;;;;;;;17.60;100.00;99894.69;6201698;23;20110;-72
2023/08/06 08:31:54;;;;;;;7.00;6.50;;;;;;;17.55;100.00;99886.31;6171641;23;20036;-74
2023/08/06 08:34:20;;;;;;;6.63;6.15;;;;;;;17.24;100.00;99872.44;6202458;23;20004;-74
2023/08/06 08:36:47;;;;;;;6.63;6.13;;;;;;;17.73;100.00;99905.81;6202842;23;20482;-74
2023/08/06 08:39:15;;;;;;;6.47;6.07;;;;;;;17.41;100.00;99863.75;6202139;23;20042;-73
2023/08/06 08:41:42;;;;;;;6.40;6.00;;;;;;;17.90;100.00;99898.06;6203673;23;20520;-73
2023/08/06 08:44:12;;;;;;;6.90;6.25;;;;;;;17.92;100.00;99875.72;6201788;23;20101;-73
2023/08/06 08:46:41;;;;;;;6.40;6.00;;;;;;;17.77;100.00;99826.72;6208709;23;20024;-73
2023/08/06 08:49:08;;;;;;;6.15;5.75;;;;;;;18.58;100.00;99889.69;6198771;23;20044;-72
2023/08/06 08:51:35;;;;;;;6.72;6.32;;;;;;;17.53;100.00;99649.53;6202942;23;20061;-74
2023/08/06 08:54:07;;;;;;;6.60;6.20;;;;;;;18.76;100.00;99735.50;6177568;23;20040;-75
2023/08/06 08:56:34;;;;;;;6.38;5.97;;;;;;;19.90;100.00;99785.78;6199622;23;20039;-74
2023/08/06 08:59:01;;;;;;;6.22;5.93;;;;;;;20.71;93.95;99714.91;6200325;23;20020;-73
2023/08/06 09:01:28;;;;;;;6.47;6.00;;;;;;;20.85;88.16;99638.69;6203709;23;20023;-73
2023/08/06 09:03:56;;;;;;;6.55;6.15;;;;;;;20.04;83.95;99488.69;6200343;23;20630;-73
2023/08/06 09:06:27;;;;;;;6.15;5.85;;;;;;;20.50;81.72;99512.00;6199335;23;20017;-74
2023/08/06 09:09:06;;;;;;;6.53;6.13;;;;;;;20.22;82.10;99477.81;6197274;23;20672;-73
2023/08/06 09:11:40;;;;;;;8.07;7.57;;;;;;;20.70;83.31;99587.09;6193461;23;20546;-72
2023/08/06 09:14:08;;;;;;;6.57;6.18;;;;;;;20.98;83.36;99611.47;6174322;23;20042;-72
2023/08/06 09:16:35;;;;;;;6.20;5.80;;;;;;;21.19;83.20;99608.19;6201341;23;20163;-72
2023/08/06 09:19:08;;;;;;;6.15;5.85;;;;;;;21.28;81.58;99596.44;6200170;23;20028;-71
2023/08/06 09:21:39;;;;;;;6.20;5.90;;;;;;;20.60;78.31;99427.34;6204629;23;20020;-72
2023/08/06 09:24:10;;;;;;;6.45;6.05;;;;;;;20.11;81.21;99463.03;6203597;22;20091;-72
2023/08/06 09:26:38;;;;;;;6.18;5.78;;;;;;;20.89;83.39;99636.53;6171707;23;20399;-71
2023/08/06 09:29:06;;;;;;;6.03;5.68;;;;;;;20.48;80.64;99416.22;6202009;23;20047;-70
2023/08/06 09:31:51;;;;;;;6.30;5.97;;;;;;;22.14;78.58;99577.59;6199660;23;20050;-71
2023/08/06 09:34:24;;;;;;;6.75;6.07;;;;;;;22.08;75.54;99499.00;6178814;23;20068;-72
2023/08/06 09:36:53;;;;;;;6.57;6.18;;;;;;;21.37;76.24;99414.91;6201187;23;20086;-72
2023/08/06 09:39:26;;;;;;;5.70;5.40;;;;;;;20.54;78.22;99433.34;6198506;22;20521;-71
2023/08/06 09:42:01;;;;;;;5.90;5.50;;;;;;;20.30;81.56;99541.72;6199942;23;20024;-71
2023/08/06 09:44:30;;;;;;;5.20;5.00;;;;;;;19.66;83.26;99544.28;6174194;23;20028;-72
2023/08/06 09:46:58;;;;;;;5.90;5.50;;;;;;;19.21;88.15;99641.38;6201476;23;20590;-71
2023/08/06 09:49:27;;;;;;;6.28;5.40;;;;;;;18.56;92.65;99694.19;6175223;23;20036;-72
2023/08/06 09:51:55;;;;;;;5.43;5.22;;;;;;;17.90;98.85;99721.09;6202725;23;20117;-73
2023/08/06 09:54:23;;;;;;;5.95;5.55;;;;;;;17.51;100.00;99781.47;6183400;23;20012;-72
2023/08/06 09:56:55;;;;;;;5.45;5.15;;;;;;;17.19;100.00;99826.97;6170641;23;20020;-74
2023/08/06 09:59:23;;;;;;;5.53;5.20;;;;;;;16.69;100.00;99802.34;6198500;23;22727;-73
2023/08/06 10:01:50;;;;;;;5.70;5.40;;;;;;;16.69;100.00;99839.44;6204279;23;20016;-72
2023/08/06 10:04:17;;;;;;;5.30;5.10;;;;;;;16.89;100.00;99913.66;6201078;23;20043;-72
2023/08/06 10:06:48;;;;;;;5.40;5.20;;;;;;;16.69;100.00;99897.72;6179839;23;20027;-73
2023/08/06 10:09:15;;;;;;;5.38;5.10;;;;;;;16.81;100.00;99918.81;6199199;23;20024;-71
2023/08/06 10:11:43;;;;;;;5.20;5.00;;;;;;;16.97;100.00;99952.72;6171817;23;20021;-74
2023/08/06 10:14:13;;;;;;;5.30;5.10;;;;;;;17.05;100.00;99968.78;6200295;22;20012;-71
2023/08/06 10:16:42;;;;;;;5.25;5.05;;;;;;;16.94;100.00;99959.16;6204017;23;20484;-72
2023/08/06 10:19:13;;;;;;;5.40;5.20;;;;;;;16.77;100.00;99949.19;6199026;23;20144;-72
2023/08/06 10:21:40;;;;;;;5.47;5.18;;;;;;;16.64;100.00;99963.56;6198736;23;20576;-72
2023/08/06 10:24:10;;;;;;;5.50;5.20;;;;;;;16.30;100.00;99948.00;6171322;23;20023;-71
2023/08/06 10:26:37;;;;;;;5.43;5.13;;;;;;;16.73;100.00;99998.97;6148510;23;20098;-72
2023/08/06 10:29:36;;;;;;;5.60;5.30;;;;;;;15.78;100.00;99861.78;6194724;23;20014;-72
2023/08/06 10:32:04;;;;;;;5.82;5.53;;;;;;;16.70;100.00;99983.38;6168213;23;20028;-72
2023/08/06 10:35:00;;;;;;;5.40;5.20;;;;;;;16.99;100.00;99991.38;6197474;23;20036;-72
2023/08/06 10:37:36;;;;;;;5.50;5.20;;;;;;;16.74;100.00;99937.06;6174861;23;20012;-71
2023/08/06 10:40:06;;;;;;;5.78;5.47;;;;;;;16.37;100.00;99955.41;6155787;23;20051;-72
2023/08/06 10:42:33;;;;;;;5.47;5.18;;;;;;;16.16;100.00;99969.56;6198020;23;20020;-72
2023/08/06 10:45:15;;;;;;;5.55;5.25;;;;;;;16.10;100.00;99984.16;6183559;23;20031;-72
2023/08/06 10:47:42;;;;;;;5.70;5.40;;;;;;;16.23;100.00;100014.88;6167025;23;20037;-72
2023/08/06 10:50:17;;;;;;;5.60;5.05;;;;;;;16.25;100.00;100016.41;6171765;23;20498;-72
2023/08/06 10:52:45;;;;;;;5.70;5.40;;;;;;;15.45;100.00;99929.78;6172886;23;20161;-72
2023/08/06 10:55:21;;;;;;;5.25;5.00;;;;;;;15.77;100.00;100030.22;6201898;23;20073;-73
2023/08/06 10:57:48;;;;;;;5.50;5.20;;;;;;;15.29;100.00;99986.59;6167758;23;20063;-72
2023/08/06 11:00:14;;;;;;;5.35;5.13;;;;;;;15.67;100.00;100050.47;6198292;23;20072;-73
2023/08/06 11:02:44;;;;;;;5.38;5.07;;;;;;;15.81;100.00;100067.84;6197494;23;20022;-73
2023/08/06 11:05:11;;;;;;;5.60;5.30;;;;;;;14.77;100.00;99911.63;6173884;23;20032;-73
2023/08/06 11:07:38;;;;;;;5.55;5.28;;;;;;;15.41;100.00;100042.06;6199032;23;20024;-72
2023/08/06 11:10:07;;;;;;;5.82;5.43;;;;;;;15.72;100.00;100072.97;6200123;23;20016;-72
2023/08/06 11:12:34;;;;;;;5.60;5.20;;;;;;;15.22;100.00;99980.16;6179618;23;20533;-71
2023/08/06 11:15:01;;;;;;;5.38;5.07;;;;;;;15.83;100.00;100071.22;6198693;23;20103;-71
2023/08/06 11:17:29;;;;;;;6.05;5.65;;;;;;;15.75;100.00;100070.06;6166212;23;20039;-71
2023/08/06 11:19:56;;;;;;;5.70;5.38;;;;;;;15.50;100.00;100028.91;6199240;23;20027;-71
2023/08/06 11:22:22;;;;;;;5.80;5.40;;;;;;;15.64;100.00;100042.81;6168070;23;20048;-72
2023/08/06 11:24:49;;;;;;;5.70;5.30;;;;;;;15.95;100.00;100073.66;6174382;23;20079;-71
2023/08/06 11:27:17;;;;;;;5.90;5.50;;;;;;;15.74;100.00;100022.56;6201106;23;20028;-71